sensor_id;sensor_type;location;lat;lon;timestamp;P1;durP1;ratioP1;P2;durP2;ratioP2
8538;SDS011;4307;53.868;11.680;2023-02-28T00:00:16;4.50;;;2.50;;
8538;SDS011;4307;53.868;11.680;2023-02-28T00:02:44;3.30;;;3.00;;
8538;SDS011;4307;53.868;11.680;2023-02-28T00:05:12;4.57;;;2.63;;
8538;SDS011;4307;53.868;11.680;2023-02-28T00:07:40;2.53;;;2.27;;
8538;SDS011;4307;53.868;11.680;2023-02-28T00:10:09;3.80;;;2.93;;
8538;SDS011;4307;53.868;11.680;2023-02-28T00:12:37;3.70;;;2.87;;
8538;SDS011;4307;53.868;11.680;2023-02-28T00:15:05;5.53;;;2.97;;
8538;SDS011;4307;53.868;11.680;2023-02-28T00:17:32;4.93;;;2.80;;
8538;SDS011;4307;53.868;11.680;2023-02-28T00:19:59;3.83;;;3.00;;
8538;SDS011;4307;53.868;11.680;2023-02-28T00:22:34;4.63;;;2.70;;
8538;SDS011;4307;53.868;11.680;2023-02-28T00:25:01;6.90;;;2.90;;
8538;SDS011;4307;53.868;11.680;2023-02-28T00:27:30;3.33;;;2.90;;
8538;SDS011;4307;53.868;11.680;2023-02-28T00:29:57;4.70;;;2.77;;
8538;SDS011;4307;53.868;11.680;2023-02-28T00:32:24;6.10;;;3.00;;
8538;SDS011;4307;53.868;11.680;2023-02-28T00:34:51;4.83;;;2.73;;
8538;SDS011;4307;53.868;11.680;2023-02-28T00:37:17;3.83;;;2.77;;
8538;SDS011;4307;53.868;11.680;2023-02-28T00:39:44;4.10;;;2.83;;
8538;SDS011;4307;53.868;11.680;2023-02-28T00:42:11;4.57;;;3.00;;
8538;SDS011;4307;53.868;11.680;2023-02-28T00:44:39;4.80;;;3.13;;
8538;SDS011;4307;53.868;11.680;2023-02-28T00:47:05;3.47;;;2.53;;
8538;SDS011;4307;53.868;11.680;2023-02-28T00:49:32;5.80;;;2.80;;
8538;SDS011;4307;53.868;11.680;2023-02-28T00:51:59;4.90;;;2.77;;
8538;SDS011;4307;53.868;11.680;2023-02-28T00:54:26;2.83;;;2.40;;
8538;SDS011;4307;53.868;11.680;2023-02-28T00:56:52;4.47;;;2.50;;
8538;SDS011;4307;53.868;11.680;2023-02-28T00:59:19;5.33;;;2.80;;
8538;SDS011;4307;53.868;11.680;2023-02-28T01:01:47;5.93;;;2.97;;
8538;SDS011;4307;53.868;11.680;2023-02-28T01:04:14;3.70;;;2.87;;
8538;SDS011;4307;53.868;11.680;2023-02-28T01:06:41;3.97;;;2.53;;
8538;SDS011;4307;53.868;11.680;2023-02-28T01:09:08;5.90;;;2.63;;
8538;SDS011;4307;53.868;11.680;2023-02-28T01:11:35;2.80;;;2.57;;
8538;SDS011;4307;53.868;11.680;2023-02-28T01:14:02;3.27;;;2.30;;
8538;SDS011;4307;53.868;11.680;2023-02-28T01:16:29;3.47;;;2.57;;
8538;SDS011;4307;53.868;11.680;2023-02-28T01:18:58;4.47;;;2.50;;
8538;SDS011;4307;53.868;11.680;2023-02-28T01:21:24;4.37;;;2.70;;
8538;SDS011;4307;53.868;11.680;2023-02-28T01:23:51;4.70;;;2.70;;
8538;SDS011;4307;53.868;11.680;2023-02-28T01:26:18;3.00;;;2.20;;
8538;SDS011;4307;53.868;11.680;2023-02-28T01:28:46;7.90;;;2.40;;
8538;SDS011;4307;53.868;11.680;2023-02-28T01:31:13;2.67;;;2.43;;
8538;SDS011;4307;53.868;11.680;2023-02-28T01:33:40;6.03;;;2.50;;
8538;SDS011;4307;53.868;11.680;2023-02-28T01:36:10;2.70;;;2.30;;
8538;SDS011;4307;53.868;11.680;2023-02-28T01:38:38;3.80;;;2.80;;
8538;SDS011;4307;53.868;11.680;2023-02-28T01:41:06;10.27;;;3.17;;
8538;SDS011;4307;53.868;11.680;2023-02-28T01:43:55;3.93;;;3.07;;
8538;SDS011;4307;53.868;11.680;2023-02-28T01:46:24;8.63;;;2.90;;
8538;SDS011;4307;53.868;11.680;2023-02-28T01:48:51;5.17;;;3.10;;
8538;SDS011;4307;53.868;11.680;2023-02-28T01:51:26;5.50;;;2.50;;
8538;SDS011;4307;53.868;11.680;2023-02-28T01:53:56;6.63;;;2.50;;
8538;SDS011;4307;53.868;11.680;2023-02-28T01:56:26;3.90;;;3.00;;
8538;SDS011;4307;53.868;11.680;2023-02-28T01:58:55;4.70;;;2.83;;
8538;SDS011;4307;53.868;11.680;2023-02-28T02:01:23;2.73;;;2.53;;
8538;SDS011;4307;53.868;11.680;2023-02-28T02:03:53;3.03;;;2.60;;
8538;SDS011;4307;53.868;11.680;2023-02-28T02:06:22;5.60;;;2.73;;
8538;SDS011;4307;53.868;11.680;2023-02-28T02:08:52;3.67;;;2.47;;
8538;SDS011;4307;53.868;11.680;2023-02-28T02:11:19;5.20;;;2.60;;
8538;SDS011;4307;53.868;11.680;2023-02-28T02:16:52;5.53;;;2.67;;
8538;SDS011;4307;53.868;11.680;2023-02-28T02:22:48;2.50;;;2.30;;
8538;SDS011;4307;53.868;11.680;2023-02-28T02:25:29;4.63;;;2.20;;
8538;SDS011;4307;53.868;11.680;2023-02-28T02:31:06;3.77;;;2.50;;
8538;SDS011;4307;53.868;11.680;2023-02-28T02:34:08;3.20;;;2.43;;
8538;SDS011;4307;53.868;11.680;2023-02-28T02:36:58;5.80;;;2.27;;
8538;SDS011;4307;53.868;11.680;2023-02-28T02:39:31;2.23;;;2.03;;
8538;SDS011;4307;53.868;11.680;2023-02-28T02:42:09;4.97;;;2.70;;
8538;SDS011;4307;53.868;11.680;2023-02-28T02:44:42;8.63;;;3.13;;
8538;SDS011;4307;53.868;11.680;2023-02-28T02:47:13;3.53;;;2.40;;
8538;SDS011;4307;53.868;11.680;2023-02-28T02:49:45;6.13;;;2.43;;
8538;SDS011;4307;53.868;11.680;2023-02-28T02:52:15;3.43;;;2.10;;
8538;SDS011;4307;53.868;11.680;2023-02-28T02:54:46;3.33;;;2.57;;
8538;SDS011;4307;53.868;11.680;2023-02-28T02:57:19;3.80;;;2.43;;
8538;SDS011;4307;53.868;11.680;2023-02-28T02:59:48;4.63;;;2.17;;
8538;SDS011;4307;53.868;11.680;2023-02-28T03:02:17;3.53;;;2.30;;
8538;SDS011;4307;53.868;11.680;2023-02-28T03:04:46;3.10;;;2.30;;
8538;SDS011;4307;53.868;11.680;2023-02-28T03:07:17;3.47;;;2.77;;
8538;SDS011;4307;53.868;11.680;2023-02-28T03:09:49;2.80;;;2.47;;
8538;SDS011;4307;53.868;11.680;2023-02-28T03:12:17;5.33;;;2.63;;
8538;SDS011;4307;53.868;11.680;2023-02-28T03:14:48;3.93;;;2.43;;
8538;SDS011;4307;53.868;11.680;2023-02-28T03:20:30;3.70;;;2.60;;
8538;SDS011;4307;53.868;11.680;2023-02-28T03:23:04;9.13;;;2.33;;
8538;SDS011;4307;53.868;11.680;2023-02-28T03:25:42;2.90;;;1.97;;
8538;SDS011;4307;53.868;11.680;2023-02-28T03:28:22;4.23;;;2.60;;
8538;SDS011;4307;53.868;11.680;2023-02-28T03:30:57;6.30;;;2.47;;
8538;SDS011;4307;53.868;11.680;2023-02-28T03:33:30;3.27;;;2.20;;
8538;SDS011;4307;53.868;11.680;2023-02-28T03:36:03;2.93;;;2.40;;
8538;SDS011;4307;53.868;11.680;2023-02-28T03:38:33;3.07;;;2.50;;
8538;SDS011;4307;53.868;11.680;2023-02-28T03:41:06;3.87;;;2.40;;
8538;SDS011;4307;53.868;11.680;2023-02-28T03:43:39;8.10;;;2.33;;
8538;SDS011;4307;53.868;11.680;2023-02-28T03:46:12;4.27;;;2.07;;
8538;SDS011;4307;53.868;11.680;2023-02-28T03:48:41;3.60;;;2.43;;
8538;SDS011;4307;53.868;11.680;2023-02-28T03:51:14;2.20;;;2.00;;
8538;SDS011;4307;53.868;11.680;2023-02-28T03:53:45;3.97;;;2.20;;
8538;SDS011;4307;53.868;11.680;2023-02-28T03:56:18;3.30;;;2.20;;
8538;SDS011;4307;53.868;11.680;2023-02-28T03:58:49;2.63;;;2.13;;
8538;SDS011;4307;53.868;11.680;2023-02-28T04:01:20;2.53;;;2.33;;
8538;SDS011;4307;53.868;11.680;2023-02-28T04:03:49;5.67;;;2.90;;
8538;SDS011;4307;53.868;11.680;2023-02-28T04:06:19;3.33;;;2.40;;
8538;SDS011;4307;53.868;11.680;2023-02-28T04:08:47;3.90;;;2.27;;
8538;SDS011;4307;53.868;11.680;2023-02-28T04:11:19;4.17;;;2.43;;
8538;SDS011;4307;53.868;11.680;2023-02-28T04:13:48;3.77;;;2.20;;
8538;SDS011;4307;53.868;11.680;2023-02-28T04:16:15;3.23;;;2.47;;
8538;SDS011;4307;53.868;11.680;2023-02-28T04:18:42;3.33;;;2.70;;
8538;SDS011;4307;53.868;11.680;2023-02-28T04:21:09;3.20;;;2.90;;
8538;SDS011;4307;53.868;11.680;2023-02-28T04:23:38;4.13;;;3.20;;
8538;SDS011;4307;53.868;11.680;2023-02-28T04:26:05;3.57;;;2.60;;
8538;SDS011;4307;53.868;11.680;2023-02-28T04:28:32;4.50;;;2.57;;
8538;SDS011;4307;53.868;11.680;2023-02-28T04:31:00;4.60;;;3.00;;
8538;SDS011;4307;53.868;11.680;2023-02-28T04:33:28;6.43;;;2.97;;
8538;SDS011;4307;53.868;11.680;2023-02-28T04:35:59;4.87;;;2.93;;
8538;SDS011;4307;53.868;11.680;2023-02-28T04:38:27;4.27;;;2.63;;
8538;SDS011;4307;53.868;11.680;2023-02-28T04:40:57;2.47;;;2.27;;
8538;SDS011;4307;53.868;11.680;2023-02-28T04:43:25;4.33;;;3.00;;
8538;SDS011;4307;53.868;11.680;2023-02-28T04:45:52;4.67;;;2.67;;
8538;SDS011;4307;53.868;11.680;2023-02-28T04:48:19;5.17;;;3.40;;
8538;SDS011;4307;53.868;11.680;2023-02-28T04:50:46;7.73;;;3.07;;
8538;SDS011;4307;53.868;11.680;2023-02-28T04:53:12;2.17;;;1.97;;
8538;SDS011;4307;53.868;11.680;2023-02-28T04:55:39;3.63;;;2.80;;
8538;SDS011;4307;53.868;11.680;2023-02-28T04:58:07;5.30;;;3.17;;
8538;SDS011;4307;53.868;11.680;2023-02-28T05:00:34;6.30;;;2.70;;
8538;SDS011;4307;53.868;11.680;2023-02-28T05:03:01;6.10;;;3.50;;
8538;SDS011;4307;53.868;11.680;2023-02-28T05:05:27;3.30;;;3.00;;
8538;SDS011;4307;53.868;11.680;2023-02-28T05:07:54;5.23;;;3.00;;
8538;SDS011;4307;53.868;11.680;2023-02-28T05:10:21;7.57;;;3.10;;
8538;SDS011;4307;53.868;11.680;2023-02-28T05:12:48;6.83;;;3.00;;
8538;SDS011;4307;53.868;11.680;2023-02-28T05:15:16;7.20;;;3.07;;
8538;SDS011;4307;53.868;11.680;2023-02-28T05:17:43;5.47;;;3.30;;
8538;SDS011;4307;53.868;11.680;2023-02-28T05:20:10;6.03;;;3.13;;
8538;SDS011;4307;53.868;11.680;2023-02-28T05:22:38;6.57;;;3.47;;
8538;SDS011;4307;53.868;11.680;2023-02-28T05:25:05;5.07;;;3.03;;
8538;SDS011;4307;53.868;11.680;2023-02-28T05:27:32;3.03;;;2.73;;
8538;SDS011;4307;53.868;11.680;2023-02-28T05:29:59;5.80;;;3.30;;
8538;SDS011;4307;53.868;11.680;2023-02-28T05:32:30;5.13;;;3.00;;
8538;SDS011;4307;53.868;11.680;2023-02-28T05:34:57;6.97;;;2.83;;
8538;SDS011;4307;53.868;11.680;2023-02-28T05:37:23;4.07;;;3.00;;
8538;SDS011;4307;53.868;11.680;2023-02-28T05:39:50;8.43;;;3.23;;
8538;SDS011;4307;53.868;11.680;2023-02-28T05:42:17;4.40;;;2.77;;
8538;SDS011;4307;53.868;11.680;2023-02-28T05:44:43;11.40;;;3.67;;
8538;SDS011;4307;53.868;11.680;2023-02-28T05:47:10;4.40;;;3.13;;
8538;SDS011;4307;53.868;11.680;2023-02-28T05:49:41;6.57;;;3.30;;
8538;SDS011;4307;53.868;11.680;2023-02-28T05:52:08;4.13;;;3.23;;
8538;SDS011;4307;53.868;11.680;2023-02-28T05:54:35;7.93;;;3.47;;
8538;SDS011;4307;53.868;11.680;2023-02-28T05:57:02;6.50;;;3.27;;
8538;SDS011;4307;53.868;11.680;2023-02-28T05:59:29;3.73;;;3.20;;
8538;SDS011;4307;53.868;11.680;2023-02-28T06:01:55;5.67;;;3.60;;
8538;SDS011;4307;53.868;11.680;2023-02-28T06:04:22;8.47;;;3.60;;
8538;SDS011;4307;53.868;11.680;2023-02-28T06:06:50;8.30;;;3.30;;
8538;SDS011;4307;53.868;11.680;2023-02-28T06:09:17;6.23;;;2.60;;
8538;SDS011;4307;53.868;11.680;2023-02-28T06:11:45;3.80;;;3.20;;
8538;SDS011;4307;53.868;11.680;2023-02-28T06:14:12;6.23;;;3.50;;
8538;SDS011;4307;53.868;11.680;2023-02-28T06:16:42;6.67;;;3.47;;
8538;SDS011;4307;53.868;11.680;2023-02-28T06:19:09;7.30;;;3.43;;
8538;SDS011;4307;53.868;11.680;2023-02-28T06:21:36;7.57;;;4.27;;
8538;SDS011;4307;53.868;11.680;2023-02-28T06:24:04;7.07;;;3.97;;
8538;SDS011;4307;53.868;11.680;2023-02-28T06:26:31;6.77;;;3.43;;
8538;SDS011;4307;53.868;11.680;2023-02-28T06:28:58;5.37;;;3.67;;
8538;SDS011;4307;53.868;11.680;2023-02-28T06:31:25;8.23;;;4.17;;
8538;SDS011;4307;53.868;11.680;2023-02-28T06:33:54;11.30;;;6.10;;
8538;SDS011;4307;53.868;11.680;2023-02-28T06:36:21;11.87;;;5.30;;
8538;SDS011;4307;53.868;11.680;2023-02-28T06:38:48;5.87;;;3.83;;
8538;SDS011;4307;53.868;11.680;2023-02-28T06:41:20;10.00;;;6.03;;
8538;SDS011;4307;53.868;11.680;2023-02-28T06:43:48;26.20;;;11.77;;
8538;SDS011;4307;53.868;11.680;2023-02-28T06:46:14;25.60;;;11.13;;
8538;SDS011;4307;53.868;11.680;2023-02-28T06:48:42;21.13;;;9.67;;
8538;SDS011;4307;53.868;11.680;2023-02-28T06:51:10;14.03;;;8.10;;
8538;SDS011;4307;53.868;11.680;2023-02-28T06:53:39;17.20;;;8.37;;
8538;SDS011;4307;53.868;11.680;2023-02-28T06:56:07;13.43;;;8.47;;
8538;SDS011;4307;53.868;11.680;2023-02-28T06:58:36;11.87;;;6.73;;
8538;SDS011;4307;53.868;11.680;2023-02-28T07:01:04;15.80;;;5.33;;
8538;SDS011;4307;53.868;11.680;2023-02-28T07:03:31;19.20;;;6.20;;
8538;SDS011;4307;53.868;11.680;2023-02-28T07:05:58;10.63;;;5.87;;
8538;SDS011;4307;53.868;11.680;2023-02-28T07:08:25;11.77;;;5.77;;
8538;SDS011;4307;53.868;11.680;2023-02-28T07:10:52;12.63;;;5.13;;
8538;SDS011;4307;53.868;11.680;2023-02-28T07:13:19;7.47;;;4.27;;
8538;SDS011;4307;53.868;11.680;2023-02-28T07:15:53;6.07;;;4.37;;
8538;SDS011;4307;53.868;11.680;2023-02-28T07:18:21;9.73;;;3.73;;
8538;SDS011;4307;53.868;11.680;2023-02-28T07:20:48;6.93;;;3.87;;
8538;SDS011;4307;53.868;11.680;2023-02-28T07:23:14;5.87;;;3.93;;
8538;SDS011;4307;53.868;11.680;2023-02-28T07:25:41;6.40;;;4.10;;
8538;SDS011;4307;53.868;11.680;2023-02-28T07:28:08;10.37;;;3.90;;
8538;SDS011;4307;53.868;11.680;2023-02-28T07:30:35;10.20;;;5.67;;
8538;SDS011;4307;53.868;11.680;2023-02-28T07:33:03;9.03;;;5.57;;
8538;SDS011;4307;53.868;11.680;2023-02-28T07:35:29;9.70;;;6.20;;
8538;SDS011;4307;53.868;11.680;2023-02-28T07:37:56;9.00;;;5.73;;
8538;SDS011;4307;53.868;11.680;2023-02-28T07:40:24;14.90;;;7.23;;
8538;SDS011;4307;53.868;11.680;2023-02-28T07:42:51;15.63;;;7.77;;
8538;SDS011;4307;53.868;11.680;2023-02-28T07:45:18;15.60;;;8.87;;
8538;SDS011;4307;53.868;11.680;2023-02-28T07:47:45;16.20;;;7.93;;
8538;SDS011;4307;53.868;11.680;2023-02-28T07:50:14;14.07;;;6.97;;
8538;SDS011;4307;53.868;11.680;2023-02-28T07:52:42;12.20;;;7.03;;
8538;SDS011;4307;53.868;11.680;2023-02-28T07:55:09;11.00;;;7.23;;
8538;SDS011;4307;53.868;11.680;2023-02-28T07:57:36;10.47;;;6.60;;
8538;SDS011;4307;53.868;11.680;2023-02-28T08:00:04;10.80;;;6.20;;
8538;SDS011;4307;53.868;11.680;2023-02-28T08:02:32;14.87;;;7.17;;
8538;SDS011;4307;53.868;11.680;2023-02-28T08:04:59;10.37;;;7.00;;
8538;SDS011;4307;53.868;11.680;2023-02-28T08:07:27;11.97;;;6.90;;
8538;SDS011;4307;53.868;11.680;2023-02-28T08:09:54;12.07;;;7.07;;
8538;SDS011;4307;53.868;11.680;2023-02-28T08:12:20;11.47;;;7.27;;
8538;SDS011;4307;53.868;11.680;2023-02-28T08:14:47;8.57;;;6.50;;
8538;SDS011;4307;53.868;11.680;2023-02-28T08:17:14;11.37;;;6.73;;
8538;SDS011;4307;53.868;11.680;2023-02-28T08:19:40;10.53;;;7.57;;
8538;SDS011;4307;53.868;11.680;2023-02-28T08:22:07;8.17;;;6.63;;
8538;SDS011;4307;53.868;11.680;2023-02-28T08:24:35;11.27;;;6.77;;
8538;SDS011;4307;53.868;11.680;2023-02-28T08:27:02;11.47;;;6.20;;
8538;SDS011;4307;53.868;11.680;2023-02-28T08:29:28;8.17;;;5.87;;
8538;SDS011;4307;53.868;11.680;2023-02-28T08:31:55;9.47;;;6.07;;
8538;SDS011;4307;53.868;11.680;2023-02-28T08:34:22;8.47;;;6.10;;
8538;SDS011;4307;53.868;11.680;2023-02-28T08:36:49;6.77;;;4.93;;
8538;SDS011;4307;53.868;11.680;2023-02-28T08:39:15;7.87;;;5.00;;
8538;SDS011;4307;53.868;11.680;2023-02-28T08:41:44;7.00;;;4.23;;
8538;SDS011;4307;53.868;11.680;2023-02-28T08:44:10;7.83;;;4.67;;
8538;SDS011;4307;53.868;11.680;2023-02-28T08:46:37;11.17;;;5.13;;
8538;SDS011;4307;53.868;11.680;2023-02-28T08:49:04;11.27;;;5.93;;
8538;SDS011;4307;53.868;11.680;2023-02-28T08:51:32;9.77;;;5.33;;
8538;SDS011;4307;53.868;11.680;2023-02-28T08:53:59;6.67;;;4.80;;
8538;SDS011;4307;53.868;11.680;2023-02-28T08:56:27;7.03;;;5.03;;
8538;SDS011;4307;53.868;11.680;2023-02-28T08:58:56;8.97;;;5.83;;
8538;SDS011;4307;53.868;11.680;2023-02-28T09:01:23;10.70;;;5.73;;
8538;SDS011;4307;53.868;11.680;2023-02-28T09:03:52;8.63;;;5.13;;
8538;SDS011;4307;53.868;11.680;2023-02-28T09:06:21;8.90;;;5.30;;
8538;SDS011;4307;53.868;11.680;2023-02-28T09:08:48;10.43;;;5.87;;
8538;SDS011;4307;53.868;11.680;2023-02-28T09:11:16;10.73;;;5.47;;
8538;SDS011;4307;53.868;11.680;2023-02-28T09:13:44;6.37;;;4.93;;
8538;SDS011;4307;53.868;11.680;2023-02-28T09:16:13;6.43;;;5.00;;
8538;SDS011;4307;53.868;11.680;2023-02-28T09:18:42;6.03;;;4.67;;
8538;SDS011;4307;53.868;11.680;2023-02-28T09:21:10;9.57;;;4.43;;
8538;SDS011;4307;53.868;11.680;2023-02-28T09:23:39;6.20;;;3.57;;
8538;SDS011;4307;53.868;11.680;2023-02-28T09:26:06;5.10;;;3.63;;
8538;SDS011;4307;53.868;11.680;2023-02-28T09:28:33;5.97;;;3.67;;
8538;SDS011;4307;53.868;11.680;2023-02-28T09:31:00;5.57;;;3.60;;
8538;SDS011;4307;53.868;11.680;2023-02-28T09:33:30;5.70;;;3.57;;
8538;SDS011;4307;53.868;11.680;2023-02-28T09:35:59;7.00;;;3.70;;
8538;SDS011;4307;53.868;11.680;2023-02-28T09:38:27;5.63;;;3.47;;
8538;SDS011;4307;53.868;11.680;2023-02-28T09:40:55;8.53;;;4.03;;
8538;SDS011;4307;53.868;11.680;2023-02-28T09:43:25;6.23;;;3.30;;
8538;SDS011;4307;53.868;11.680;2023-02-28T09:45:55;8.10;;;4.27;;
8538;SDS011;4307;53.868;11.680;2023-02-28T09:48:27;6.77;;;3.90;;
8538;SDS011;4307;53.868;11.680;2023-02-28T09:51:00;5.17;;;3.60;;
8538;SDS011;4307;53.868;11.680;2023-02-28T09:53:30;6.30;;;3.80;;
8538;SDS011;4307;53.868;11.680;2023-02-28T09:56:00;5.70;;;3.63;;
8538;SDS011;4307;53.868;11.680;2023-02-28T09:58:31;4.60;;;3.17;;
8538;SDS011;4307;53.868;11.680;2023-02-28T10:01:03;4.50;;;3.20;;
8538;SDS011;4307;53.868;11.680;2023-02-28T10:03:36;7.60;;;4.03;;
8538;SDS011;4307;53.868;11.680;2023-02-28T10:06:07;5.60;;;3.10;;
8538;SDS011;4307;53.868;11.680;2023-02-28T10:08:40;4.77;;;2.83;;
8538;SDS011;4307;53.868;11.680;2023-02-28T10:11:14;3.17;;;2.53;;
8538;SDS011;4307;53.868;11.680;2023-02-28T10:13:46;5.33;;;2.73;;
8538;SDS011;4307;53.868;11.680;2023-02-28T10:16:20;5.20;;;2.70;;
8538;SDS011;4307;53.868;11.680;2023-02-28T10:18:53;6.63;;;3.17;;
8538;SDS011;4307;53.868;11.680;2023-02-28T10:21:24;5.20;;;2.93;;
8538;SDS011;4307;53.868;11.680;2023-02-28T10:23:56;5.30;;;3.10;;
8538;SDS011;4307;53.868;11.680;2023-02-28T10:26:28;4.40;;;3.27;;
8538;SDS011;4307;53.868;11.680;2023-02-28T10:28:57;4.13;;;2.90;;
8538;SDS011;4307;53.868;11.680;2023-02-28T10:31:24;7.97;;;3.17;;
8538;SDS011;4307;53.868;11.680;2023-02-28T10:33:52;5.63;;;2.77;;
8538;SDS011;4307;53.868;11.680;2023-02-28T10:36:23;4.13;;;3.30;;
8538;SDS011;4307;53.868;11.680;2023-02-28T10:38:50;9.07;;;3.40;;
8538;SDS011;4307;53.868;11.680;2023-02-28T10:41:25;3.80;;;3.17;;
8538;SDS011;4307;53.868;11.680;2023-02-28T10:43:55;5.30;;;3.20;;
8538;SDS011;4307;53.868;11.680;2023-02-28T10:46:40;8.80;;;3.53;;
8538;SDS011;4307;53.868;11.680;2023-02-28T10:49:13;6.93;;;3.07;;
8538;SDS011;4307;53.868;11.680;2023-02-28T10:51:44;3.73;;;3.10;;
8538;SDS011;4307;53.868;11.680;2023-02-28T10:54:15;4.70;;;3.10;;
8538;SDS011;4307;53.868;11.680;2023-02-28T10:56:42;5.53;;;3.20;;
8538;SDS011;4307;53.868;11.680;2023-02-28T10:59:22;5.23;;;3.40;;
8538;SDS011;4307;53.868;11.680;2023-02-28T11:01:53;7.63;;;3.50;;
8538;SDS011;4307;53.868;11.680;2023-02-28T11:04:31;4.03;;;3.00;;
8538;SDS011;4307;53.868;11.680;2023-02-28T11:07:01;5.60;;;3.03;;
8538;SDS011;4307;53.868;11.680;2023-02-28T11:09:30;5.00;;;2.73;;
8538;SDS011;4307;53.868;11.680;2023-02-28T11:12:00;3.23;;;2.30;;
8538;SDS011;4307;53.868;11.680;2023-02-28T11:14:28;3.93;;;2.80;;
8538;SDS011;4307;53.868;11.680;2023-02-28T11:17:00;3.07;;;2.10;;
8538;SDS011;4307;53.868;11.680;2023-02-28T11:19:43;4.40;;;2.67;;
8538;SDS011;4307;53.868;11.680;2023-02-28T11:22:15;3.87;;;2.33;;
8538;SDS011;4307;53.868;11.680;2023-02-28T11:24:45;4.53;;;2.70;;
8538;SDS011;4307;53.868;11.680;2023-02-28T11:27:26;2.83;;;2.60;;
8538;SDS011;4307;53.868;11.680;2023-02-28T11:30:26;2.90;;;2.60;;
8538;SDS011;4307;53.868;11.680;2023-02-28T11:32:55;3.87;;;3.03;;
8538;SDS011;4307;53.868;11.680;2023-02-28T11:35:24;4.90;;;2.80;;
8538;SDS011;4307;53.868;11.680;2023-02-28T11:37:54;3.17;;;2.70;;
8538;SDS011;4307;53.868;11.680;2023-02-28T11:40:23;4.13;;;2.40;;
8538;SDS011;4307;53.868;11.680;2023-02-28T11:42:57;4.63;;;2.50;;
8538;SDS011;4307;53.868;11.680;2023-02-28T11:45:36;4.57;;;2.10;;
8538;SDS011;4307;53.868;11.680;2023-02-28T11:48:13;2.83;;;2.00;;
8538;SDS011;4307;53.868;11.680;2023-02-28T11:50:48;3.23;;;2.57;;
8538;SDS011;4307;53.868;11.680;2023-02-28T11:53:34;3.67;;;2.80;;
8538;SDS011;4307;53.868;11.680;2023-02-28T11:56:14;2.70;;;2.37;;
8538;SDS011;4307;53.868;11.680;2023-02-28T11:58:51;2.23;;;1.90;;
8538;SDS011;4307;53.868;11.680;2023-02-28T12:01:31;2.27;;;1.87;;
8538;SDS011;4307;53.868;11.680;2023-02-28T12:04:10;3.67;;;2.10;;
8538;SDS011;4307;53.868;11.680;2023-02-28T12:06:45;3.03;;;2.20;;
8538;SDS011;4307;53.868;11.680;2023-02-28T12:09:23;3.43;;;2.40;;
8538;SDS011;4307;53.868;11.680;2023-02-28T12:12:02;3.87;;;2.80;;
8538;SDS011;4307;53.868;11.680;2023-02-28T12:14:47;3.53;;;2.63;;
8538;SDS011;4307;53.868;11.680;2023-02-28T12:17:23;4.33;;;2.80;;
8538;SDS011;4307;53.868;11.680;2023-02-28T12:20:00;3.73;;;2.30;;
8538;SDS011;4307;53.868;11.680;2023-02-28T12:22:36;2.80;;;2.30;;
8538;SDS011;4307;53.868;11.680;2023-02-28T12:28:20;4.00;;;2.73;;
8538;SDS011;4307;53.868;11.680;2023-02-28T12:30:50;5.90;;;2.60;;
8538;SDS011;4307;53.868;11.680;2023-02-28T12:33:25;3.70;;;2.73;;
8538;SDS011;4307;53.868;11.680;2023-02-28T12:35:55;3.67;;;2.27;;
8538;SDS011;4307;53.868;11.680;2023-02-28T12:38:25;4.50;;;2.53;;
8538;SDS011;4307;53.868;11.680;2023-02-28T12:40:56;2.87;;;2.30;;
8538;SDS011;4307;53.868;11.680;2023-02-28T12:43:27;4.27;;;2.20;;
8538;SDS011;4307;53.868;11.680;2023-02-28T12:45:59;4.53;;;1.97;;
8538;SDS011;4307;53.868;11.680;2023-02-28T12:48:36;2.53;;;2.10;;
8538;SDS011;4307;53.868;11.680;2023-02-28T12:51:06;2.93;;;2.20;;
8538;SDS011;4307;53.868;11.680;2023-02-28T12:53:38;2.27;;;2.07;;
8538;SDS011;4307;53.868;11.680;2023-02-28T12:56:16;2.90;;;2.13;;
8538;SDS011;4307;53.868;11.680;2023-02-28T12:58:48;3.33;;;2.07;;
8538;SDS011;4307;53.868;11.680;2023-02-28T13:01:23;3.17;;;2.47;;
8538;SDS011;4307;53.868;11.680;2023-02-28T13:04:21;4.87;;;2.23;;
8538;SDS011;4307;53.868;11.680;2023-02-28T13:07:21;3.90;;;2.30;;
8538;SDS011;4307;53.868;11.680;2023-02-28T13:10:11;3.90;;;2.37;;
8538;SDS011;4307;53.868;11.680;2023-02-28T13:12:45;2.93;;;2.40;;
8538;SDS011;4307;53.868;11.680;2023-02-28T13:15:16;2.07;;;1.87;;
8538;SDS011;4307;53.868;11.680;2023-02-28T13:17:48;2.33;;;1.90;;
8538;SDS011;4307;53.868;11.680;2023-02-28T13:20:16;2.60;;;2.17;;
8538;SDS011;4307;53.868;11.680;2023-02-28T13:22:45;4.63;;;2.27;;
8538;SDS011;4307;53.868;11.680;2023-02-28T13:31:31;3.97;;;2.23;;
8538;SDS011;4307;53.868;11.680;2023-02-28T13:36:42;4.10;;;2.07;;
8538;SDS011;4307;53.868;11.680;2023-02-28T13:42:30;2.93;;;2.67;;
8538;SDS011;4307;53.868;11.680;2023-02-28T13:45:20;4.33;;;3.17;;
8538;SDS011;4307;53.868;11.680;2023-02-28T13:47:53;3.77;;;3.00;;
8538;SDS011;4307;53.868;11.680;2023-02-28T13:50:29;3.17;;;2.87;;
8538;SDS011;4307;53.868;11.680;2023-02-28T13:56:06;4.83;;;3.10;;
8538;SDS011;4307;53.868;11.680;2023-02-28T13:58:48;6.57;;;2.93;;
8538;SDS011;4307;53.868;11.680;2023-02-28T14:01:26;4.67;;;3.10;;
8538;SDS011;4307;53.868;11.680;2023-02-28T14:04:10;4.27;;;3.40;;
8538;SDS011;4307;53.868;11.680;2023-02-28T14:06:58;5.93;;;3.70;;
8538;SDS011;4307;53.868;11.680;2023-02-28T14:09:26;6.47;;;3.30;;
8538;SDS011;4307;53.868;11.680;2023-02-28T14:11:54;5.97;;;3.30;;
8538;SDS011;4307;53.868;11.680;2023-02-28T14:17:22;4.30;;;2.90;;
8538;SDS011;4307;53.868;11.680;2023-02-28T14:19:50;3.23;;;2.60;;
8538;SDS011;4307;53.868;11.680;2023-02-28T14:22:21;3.93;;;3.07;;
8538;SDS011;4307;53.868;11.680;2023-02-28T14:25:09;4.40;;;2.90;;
8538;SDS011;4307;53.868;11.680;2023-02-28T14:27:43;3.10;;;2.73;;
8538;SDS011;4307;53.868;11.680;2023-02-28T14:36:16;3.37;;;2.83;;
8538;SDS011;4307;53.868;11.680;2023-02-28T14:38:48;4.23;;;3.00;;
8538;SDS011;4307;53.868;11.680;2023-02-28T14:41:20;3.37;;;2.43;;
8538;SDS011;4307;53.868;11.680;2023-02-28T14:43:50;3.63;;;2.70;;
8538;SDS011;4307;53.868;11.680;2023-02-28T14:46:19;5.47;;;2.80;;
8538;SDS011;4307;53.868;11.680;2023-02-28T14:48:47;3.53;;;2.70;;
8538;SDS011;4307;53.868;11.680;2023-02-28T14:51:17;5.43;;;3.47;;
8538;SDS011;4307;53.868;11.680;2023-02-28T14:53:46;5.23;;;3.40;;
8538;SDS011;4307;53.868;11.680;2023-02-28T14:56:23;3.10;;;2.80;;
8538;SDS011;4307;53.868;11.680;2023-02-28T14:58:51;3.00;;;2.53;;
8538;SDS011;4307;53.868;11.680;2023-02-28T15:01:21;5.33;;;2.77;;
8538;SDS011;4307;53.868;11.680;2023-02-28T15:03:56;3.67;;;2.90;;
8538;SDS011;4307;53.868;11.680;2023-02-28T15:06:24;3.20;;;2.80;;
8538;SDS011;4307;53.868;11.680;2023-02-28T15:09:06;4.70;;;2.83;;
8538;SDS011;4307;53.868;11.680;2023-02-28T15:11:34;3.97;;;2.80;;
8538;SDS011;4307;53.868;11.680;2023-02-28T15:14:02;3.23;;;2.50;;
8538;SDS011;4307;53.868;11.680;2023-02-28T15:16:31;4.30;;;2.60;;
8538;SDS011;4307;53.868;11.680;2023-02-28T15:19:01;2.93;;;2.60;;
8538;SDS011;4307;53.868;11.680;2023-02-28T15:21:32;3.87;;;3.20;;
8538;SDS011;4307;53.868;11.680;2023-02-28T15:24:02;3.57;;;2.87;;
8538;SDS011;4307;53.868;11.680;2023-02-28T15:26:31;3.20;;;2.17;;
8538;SDS011;4307;53.868;11.680;2023-02-28T15:29:00;3.53;;;2.90;;
8538;SDS011;4307;53.868;11.680;2023-02-28T15:31:33;4.33;;;2.50;;
8538;SDS011;4307;53.868;11.680;2023-02-28T15:34:02;7.87;;;4.27;;
8538;SDS011;4307;53.868;11.680;2023-02-28T15:36:31;6.77;;;4.00;;
8538;SDS011;4307;53.868;11.680;2023-02-28T15:39:02;5.67;;;2.80;;
8538;SDS011;4307;53.868;11.680;2023-02-28T15:41:30;4.40;;;2.37;;
8538;SDS011;4307;53.868;11.680;2023-02-28T15:44:13;5.80;;;2.57;;
8538;SDS011;4307;53.868;11.680;2023-02-28T15:46:43;4.27;;;2.20;;
8538;SDS011;4307;53.868;11.680;2023-02-28T15:49:21;2.77;;;2.53;;
8538;SDS011;4307;53.868;11.680;2023-02-28T15:51:48;5.07;;;3.17;;
8538;SDS011;4307;53.868;11.680;2023-02-28T15:54:18;2.77;;;2.57;;
8538;SDS011;4307;53.868;11.680;2023-02-28T15:56:49;7.13;;;3.47;;
8538;SDS011;4307;53.868;11.680;2023-02-28T15:59:19;3.83;;;3.40;;